Highland Valley West (175) Station Data

Red Flag Warning: No
Fire Weather Zone: 250
SDGE Region: Ramona
Lat/Lon: 33.067/-116.99

Observations

Time Wind Speed/Gust Temp(F) RH Fuel Moist Fuel Temp(F) Dewpt(F) Tmax(F) Tmin(F) Accum Precip 10-min Precip SL Press(mb)
6/27 5:00pm 243 7 G 11 87° 31% - - 53° 94.7° 72.7° - - -
6/27 4:50pm 248 7 G 12 86° 31% - - 52° 94.7° 72.7° - - -
6/27 4:40pm 255 8 G 12 87° 29% - - 51° 94.7° 72.7° - - -
6/27 4:30pm 247 8 G 14 87° 29% - - 51° 94.7° 72.7° - - -
6/27 4:20pm 251 8 G 12 88° 29% - - 51° 94.7° 72.7° - - -
6/27 4:10pm 247 7 G 11 88° 30% - - 52° 94.7° 72.7° - - -
6/27 4:00pm 253 7 G 12 88° 30% - - 52° 94.7° 72.7° - - -
6/27 3:50pm 254 7 G 12 88° 28% - - 51° 94.7° 72.7° - - -
6/27 3:40pm 255 8 G 12 88° 28% - - 51° 94.7° 72.7° - - -
6/27 3:30pm 256 8 G 13 88° 28% - - 50° 94.7° 72.7° - - -
6/27 3:20pm 246 7 G 12 88° 27% - - 49° 94.7° 72.7° - - -
6/27 3:10pm 248 7 G 12 88° 27% - - 50° 94.7° 72.7° - - -
6/27 3:00pm 247 7 G 14 89° 27% - - 50° 94.7° 72.7° - - -
6/27 2:50pm 246 7 G 13 89° 26% - - 49° 94.7° 72.7° - - -
6/27 2:40pm 251 8 G 13 89° 26% - - 49° 94.7° 72.7° - - -
6/27 2:30pm 244 8 G 15 90° 25% - - 49° 94.7° 72.7° - - -
6/27 2:20pm 242 7 G 11 90° 26% - - 51° 94.7° 72.7° - - -
6/27 2:10pm 255 7 G 12 90° 27% - - 51° 94.7° 72.7° - - -
6/27 2:00pm 250 7 G 12 90° 28% - - 52° 94.7° 72.7° - - -
6/27 1:50pm 229 8 G 14 91° 28% - - 53° 94.7° 72.7° - - -
6/27 1:40pm 232 8 G 13 91° 26% - - 51° 94.7° 72.7° - - -
6/27 1:30pm 242 7 G 11 93° 22% - - 48° 94.7° 72.7° - - -
6/27 1:20pm 255 7 G 12 93° 21% - - 47° 94.7° 72.7° - - -
6/27 1:10pm 269 6 G 12 94° 19% - - 45° 94.7° 72.7° - - -
6/27 1:00pm 263 5 G 11 93° 19% - - 45° 94.3° 72.7° - - -
6/27 12:50pm 261 6 G 9 93° 18% - - 43° 94.3° 72.7° - - -
6/27 12:40pm 266 6 G 11 93° 16% - - 39° 94.3° 72.7° - - -
6/27 12:30pm 261 6 G 11 93° 17% - - 42° 94.3° 72.7° - - -
6/27 12:20pm 237 6 G 12 93° 17% - - 41° 94.3° 72.7° - - -
6/27 12:10pm 256 5 G 9 93° 17% - - 42° 94.3° 72.7° - - -
6/27 12:00pm 269 5 G 10 93° 16% - - 41° 94.1° 72.7° - - -
6/27 11:50am 249 4 G 9 93° 15% - - 39° 94.1° 72.7° - - -
6/27 11:40am 245 5 G 8 93° 14% - - 36° 94.1° 72.7° - - -
6/27 11:30am 256 6 G 10 93° 13% - - 35° 94.1° 72.7° - - -
6/27 11:20am 243 5 G 9 93° 12% - - 33° 94.1° 72.7° - - -
6/27 11:10am 243 4 G 8 92° 11% - - 31° 93.9° 72.7° - - -
6/27 11:00am 261 4 G 8 92° 12% - - 33° 92.9° 72.7° - - -
6/27 10:50am 251 3 G 8 92° 11% - - 30° 92.7° 72.7° - - -
6/27 10:40am 294 2 G 5 91° 11% - - 29° 92.2° 72.7° - - -
6/27 10:30am 290 3 G 7 89° 12% - - 29° 90.5° 72.7° - - -
6/27 10:20am 284 3 G 7 89° 12% - - 30° 89.7° 72.7° - - -
6/27 10:10am 277 3 G 6 88° 14% - - 33° 88.9° 72.7° - - -
6/27 10:00am 289 3 G 6 87° 16% - - 36° 88.1° 72.7° - - -
6/27 9:50am 296 4 G 6 87° 17% - - 36° 87.2° 72.7° - - -
6/27 9:40am 290 4 G 7 86° 17% - - 37° 86.8° 72.7° - - -
6/27 9:30am 289 3 G 6 86° 17% - - 36° 86.8° 72.7° - - -
6/27 9:20am 297 3 G 5 86° 18% - - 37° 86.3° 72.7° - - -
6/27 9:10am 301 3 G 5 85° 19% - - 38° 85.4° 72.7° - - -
6/27 8:50am 296 2 G 4 83° 24% - - 43° 85.4° 72.7° - - -
6/27 8:40am 266 2 G 4 85° 23% - - 43° 85.4° 72.7° - - -
6/27 8:30am 222 1 G 2 85° 23% - - 43° 85.1° 72.7° - - -
6/27 8:20am 270 1 G 2 84° 22% - - 41° 84.9° 72.7° - - -
6/27 8:10am 158 1 G 3 84° 22% - - 41° 84.9° 72.7° - - -
6/27 8:00am 110 1 G 3 84° 21% - - 39° 84.3° 72.7° - - -
6/27 7:40am 71 3 G 4 81° 21% - - 37° 82.1° 72.7° - - -
6/27 7:30am 70 2 G 3 80° 22% - - 38° 80.8° 72.7° - - -
6/27 7:20am 60 3 G 4 79° 21% - - 36° 80.3° 72.7° - - -
6/27 7:10am 54 3 G 5 78° 21% - - 35° 80.3° 72.7° - - -
6/27 7:00am 61 3 G 4 78° 21% - - 34° 80.3° 72.7° - - -
6/27 6:50am 76 3 G 5 77° 20% - - 33° 80.3° 72.7° - - -
6/27 6:40am 64 4 G 5 78° 18% - - 31° 80.3° 72.7° - - -
6/27 6:30am 69 3 G 5 77° 18% - - 30° 80.3° 72.7° - - -
6/27 6:20am 72 4 G 5 77° 17% - - 29° 80.3° 72.7° - - -
6/27 6:10am 71 3 G 4 78° 16% - - 29° 80.3° 72.7° - - -
6/27 6:00am 63 4 G 6 78° 16% - - 28° 80.3° 72.7° - - -
6/27 5:50am 69 5 G 6 77° 17% - - 29° 80.3° 72.7° - - -
6/27 5:40am 74 4 G 5 77° 17% - - 29° 80.3° 72.7° - - -
6/27 5:30am 62 4 G 5 77° 17% - - 29° 80.3° 72.7° - - -
6/27 5:20am 68 3 G 3 78° 17% - - 30° 80.3° 72.7° - - -
6/27 5:10am 69 3 G 4 77° 18% - - 30° 80.3° 72.7° - - -
6/27 5:00am 75 3 G 4 78° 17% - - 30° 80.3° 72.7° - - -
6/27 4:50am 60 4 G 7 77° 18% - - 30° 80.3° 72.7° - - -
6/27 4:40am 54 6 G 8 78° 18% - - 31° 80.3° 72.7° - - -
6/27 4:30am 62 5 G 7 76° 19% - - 31° 80.3° 72.7° - - -
6/27 4:20am 73 4 G 7 76° 19% - - 31° 80.3° 72.7° - - -
6/27 4:10am 75 3 G 4 78° 18% - - 31° 80.3° 72.7° - - -
6/27 4:00am 54 3 G 4 77° 19% - - 32° 80.3° 72.7° - - -
6/27 3:50am 70 3 G 4 77° 19% - - 32° 80.3° 72.7° - - -
6/27 3:40am 74 3 G 4 77° 19% - - 32° 80.3° 72.7° - - -
6/27 3:30am 69 3 G 4 77° 19% - - 32° 80.3° 72.7° - - -
6/27 3:20am 86 4 G 5 76° 21% - - 33° 80.3° 72.7° - - -
6/27 3:10am 68 4 G 7 77° 19% - - 32° 80.3° 72.7° - - -
6/27 3:00am 61 5 G 7 77° 20% - - 33° 80.3° 72.7° - - -
6/27 2:50am 91 4 G 5 74° 23% - - 34° 80.3° 72.7° - - -
6/27 2:40am 102 4 G 5 76° 22% - - 34° 80.3° 74.6° - - -
6/27 2:30am 69 3 G 5 78° 19% - - 33° 80.3° 76° - - -
6/27 2:20am 76 4 G 6 79° 20% - - 34° 80.3° 76° - - -
6/27 2:10am 60 5 G 7 79° 19% - - 34° 80.3° 76° - - -
6/27 2:00am 68 5 G 8 79° 20% - - 35° 80.3° 76° - - -
6/27 1:50am 68 6 G 7 79° 21% - - 36° 80.3° 76° - - -
6/27 1:40am 70 5 G 7 79° 21% - - 36° 80.3° 76° - - -
6/27 1:30am 64 5 G 7 78° 22% - - 36° 80.3° 76° - - -
6/27 1:20am 61 5 G 7 77° 23% - - 36° 80.3° 76° - - -
6/27 1:10am 73 3 G 5 77° 23% - - 37° 80.3° 76° - - -
6/27 1:00am 67 4 G 6 78° 23% - - 37° 80.3° 76.1° - - -
6/27 12:50am 56 4 G 5 79° 22% - - 37° 80.3° 76.1° - - -
6/27 12:40am 58 2 G 3 78° 24% - - 38° 80.1° 76.1° - - -
6/27 12:30am 60 3 G 4 79° 24% - - 39° 80.1° 76.1° - - -
6/27 12:20am 69 3 G 5 78° 26% - - 40° 80.1° 76.1° - - -
6/27 12:10am 89 3 G 5 78° 25% - - 39° 80.1° 76.1° - - -
6/27 12:00am 65 3 G 7 80° 23% - - 39° 98° 72.5° - - -
6/26 11:50pm 62 5 G 7 80° 24% - - 39° 98° 72.5° - - -
6/26 11:40pm 66 5 G 8 80° 23% - - 38° 98° 72.5° - - -
6/26 11:30pm 69 5 G 8 79° 22% - - 37° 98° 72.5° - - -
6/26 11:20pm 76 5 G 7 78° 23% - - 37° 98° 72.5° - - -
6/26 11:10pm 73 5 G 7 77° 25% - - 38° 98° 72.5° - - -
6/26 11:00pm 77 4 G 5 77° 28% - - 42° 98° 72.5° - - -
6/26 10:50pm 75 4 G 4 77° 26% - - 40° 98° 72.5° - - -
6/26 10:40pm 79 3 G 3 78° 24% - - 39° 98° 72.5° - - -
6/26 10:30pm 16 1 G 3 80° 23% - - 38° 98° 72.5° - - -
6/26 10:20pm 327 0 G 1 79° 24% - - 39° 98° 72.5° - - -
6/26 10:10pm 230 1 G 3 80° 24% - - 40° 98° 72.5° - - -
6/26 10:00pm 244 3 G 5 81° 24% - - 41° 98° 72.5° - - -
6/26 9:50pm 248 4 G 6 80° 28% - - 44° 98° 72.5° - - -
6/26 9:40pm 253 3 G 6 79° 33% - - 47° 98° 72.5° - - -
6/26 9:30pm 261 2 G 4 79° 34% - - 48° 98° 72.5° - - -
6/26 9:20pm 174 0 G 3 79° 28% - - 43° 98° 72.5° - - -
6/26 9:10pm 268 0 G 2 81° 28% - - 45° 98° 72.5° - - -
6/26 9:00pm 305 2 G 4 83° 23% - - 42° 98° 72.5° - - -
6/26 8:50pm 285 1 G 2 85° 19% - - 38° 98° 72.5° - - -
6/26 8:40pm 316 0 G 1 85° 18% - - 37° 98° 72.5° - - -
6/26 8:30pm 340 1 G 1 85° 21% - - 40° 98° 72.5° - - -
6/26 8:20pm 286 1 G 3 85° 24% - - 44° 98° 72.5° - - -
6/26 8:10pm 255 2 G 3 86° 21% - - 42° 98° 72.5° - - -
6/26 8:00pm 252 2 G 3 86° 21% - - 42° 98° 72.5° - - -
6/26 7:50pm 240 2 G 4 88° 20% - - 41° 98° 72.5° - - -
6/26 7:40pm 232 3 G 4 88° 22% - - 44° 98° 72.5° - - -
6/26 7:30pm 240 4 G 6 89° 19% - - 41° 98° 72.5° - - -
6/26 7:20pm 249 3 G 6 90° 18% - - 40° 98° 72.5° - - -
6/26 7:10pm 255 3 G 6 91° 19% - - 44° 98° 72.5° - - -
6/26 7:00pm 259 4 G 7 92° 17% - - 41° 98° 72.5° - - -
6/26 6:50pm 257 4 G 7 92° 17% - - 41° 98° 72.5° - - -
6/26 6:40pm 252 4 G 8 92° 17% - - 42° 98° 72.5° - - -
6/26 6:30pm 251 6 G 11 92° 16% - - 40° 98° 72.5° - - -
6/26 6:20pm 256 6 G 10 93° 17% - - 41° 98° 72.5° - - -
6/26 6:10pm 263 5 G 10 93° 17% - - 42° 98° 72.5° - - -
6/26 6:00pm 277 6 G 10 94° 18% - - 44° 98° 72.5° - - -
6/26 5:50pm 277 5 G 10 94° 19% - - 45° 98° 72.5° - - -
6/26 5:40pm 267 5 G 8 95° 19% - - 46° 98° 72.5° - - -
6/26 5:30pm 257 4 G 8 96° 19% - - 47° 98° 72.5° - - -
6/26 5:20pm 271 6 G 12 95° 19% - - 46° 98° 72.5° - - -
6/26 5:10pm 278 6 G 10 95° 19% - - 47° 98° 72.5° - - -
6/26 5:00pm 271 6 G 11 95° 20% - - 48° 98° 72.5° - - -
6/26 4:50pm 274 6 G 10 95° 21% - - 49° 98° 72.5° - - -
6/26 4:40pm 264 6 G 10 96° 22% - - 50° 98° 72.5° - - -
6/26 4:30pm 275 5 G 11 96° 23% - - 52° 98° 72.5° - - -
6/26 4:20pm 274 6 G 10 95° 24% - - 52° 98° 72.5° - - -
6/26 4:10pm 254 6 G 10 95° 24% - - 52° 98° 72.5° - - -
6/26 4:00pm 268 6 G 13 96° 24% - - 53° 98° 72.5° - - -
6/26 3:50pm 274 5 G 9 96° 24% - - 53° 98° 72.5° - - -
6/26 3:40pm 276 6 G 10 96° 24% - - 53° 98° 72.5° - - -
6/26 3:30pm 271 5 G 11 96° 23% - - 53° 98° 72.5° - - -
6/26 3:20pm 267 6 G 11 97° 22% - - 52° 98° 72.5° - - -
6/26 3:10pm 270 5 G 9 97° 23% - - 53° 97.9° 72.5° - - -
6/26 3:00pm 266 5 G 11 96° 23% - - 53° 97.9° 72.5° - - -
6/26 2:50pm 267 6 G 11 96° 24% - - 53° 97.9° 72.5° - - -
6/26 2:40pm 277 6 G 11 96° 24% - - 53° 97.9° 72.5° - - -
6/26 2:30pm 268 5 G 10 97° 23% - - 53° 97.9° 72.5° - - -
6/26 2:20pm 259 5 G 8 96° 23% - - 53° 97.9° 72.5° - - -
6/26 2:10pm 272 5 G 9 96° 23% - - 52° 97.9° 72.5° - - -
6/26 2:00pm 271 5 G 9 96° 21% - - 51° 97.9° 72.5° - - -
6/26 1:50pm 277 5 G 10 96° 21% - - 50° 97.9° 72.5° - - -
6/26 1:40pm 256 6 G 10 96° 24% - - 53° 97.9° 72.5° - - -
6/26 1:30pm 232 5 G 9 96° 25% - - 55° 97.9° 72.5° - - -
6/26 1:20pm 235 6 G 9 96° 25% - - 54° 96.9° 72.5° - - -
6/26 1:10pm 237 6 G 10 96° 27% - - 56° 96.9° 72.5° - - -
6/26 1:00pm 249 6 G 10 96° 27% - - 57° 96.9° 72.5° - - -
6/26 12:50pm 246 5 G 9 96° 27% - - 57° 96.9° 72.5° - - -
6/26 12:40pm 262 6 G 10 96° 28% - - 57° 96.9° 72.5° - - -
6/26 12:30pm 262 6 G 10 95° 28% - - 57° 96.6° 72.5° - - -
6/26 12:20pm 260 6 G 10 95° 30% - - 59° 96.4° 72.5° - - -
6/26 12:10pm 255 6 G 11 95° 31% - - 59° 95.9° 72.5° - - -
6/26 12:00pm 254 6 G 10 94° 32% - - 60° 95.4° 72.5° - - -
6/26 11:50am 249 7 G 10 94° 32% - - 60° 95.2° 72.5° - - -
6/26 11:40am 264 6 G 11 94° 32% - - 60° 95.2° 72.5° - - -
6/26 11:30am 252 6 G 11 93° 33% - - 60° 94.8° 72.5° - - -
6/26 11:20am 254 6 G 11 94° 32% - - 59° 94.8° 72.5° - - -
6/26 11:10am 261 5 G 10 94° 33% - - 60° 94.7° 72.5° - - -
6/26 11:00am 283 5 G 10 93° 35% - - 61° 93.4° 72.5° - - -
6/26 10:50am 287 6 G 10 92° 35% - - 60° 93.2° 72.5° - - -
6/26 10:40am 287 5 G 10 92° 34% - - 60° 93.2° 72.5° - - -
6/26 10:30am 298 5 G 9 92° 32% - - 58° 93.2° 72.5° - - -
6/26 10:20am 324 5 G 7 90° 33% - - 58° 91° 72.5° - - -
6/26 10:10am 324 4 G 6 89° 34% - - 57° 90.4° 72.5° - - -
6/26 10:00am 299 4 G 7 89° 33% - - 56° 90.4° 72.5° - - -
6/26 9:50am 293 4 G 7 89° 32% - - 55° 90.4° 72.5° - - -
6/26 9:40am 290 4 G 6 88° 30% - - 53° 90.4° 72.5° - - -
6/26 9:30am 292 4 G 6 88° 30% - - 52° 90.4° 72.5° - - -
6/26 9:20am 299 3 G 5 88° 29% - - 52° 90.4° 72.5° - - -
6/26 9:10am 293 3 G 5 87° 30% - - 52° 90.4° 72.5° - - -
6/26 9:00am 293 2 G 4 87° 31% - - 53° 90.4° 72.5° - - -
6/26 8:50am 305 3 G 4 87° 34% - - 55° 90.4° 72.5° - - -
6/26 8:40am 290 2 G 4 87° 34% - - 56° 90.4° 72.5° - - -
6/26 8:30am 260 1 G 2 89° 30% - - 53° 90.4° 72.5° - - -
6/26 8:20am 122 0 G 2 89° 27% - - 51° 90.4° 72.5° - - -
6/26 8:10am 81 1 G 3 88° 27% - - 50° 88.9° 72.5° - - -
6/26 8:00am 61 2 G 3 87° 26% - - 48° 88.2° 72.5° - - -
6/26 7:50am 62 2 G 5 86° 28% - - 49° 86.7° 72.5° - - -
6/26 7:40am 87 1 G 2 85° 26% - - 46° 86.3° 72.5° - - -
6/26 7:30am 60 2 G 3 82° 30% - - 47° 84.3° 72.5° - - -
6/26 7:20am 90 1 G 3 82° 34% - - 50° 84.3° 72.5° - - -
6/26 7:10am 28 1 G 2 82° 27% - - 44° 84.3° 72.5° - - -
6/26 7:00am 80 2 G 4 81° 28% - - 44° 84.3° 72.5° - - -
6/26 6:50am 59 3 G 5 79° 29% - - 44° 84.3° 72.5° - - -
6/26 6:40am 86 4 G 5 78° 31% - - 45° 84.3° 72.5° - - -
6/26 6:30am 101 4 G 5 77° 31% - - 44° 84.3° 72.5° - - -
6/26 6:20am 85 4 G 8 82° 24% - - 42° 84.3° 72.5° - - -
6/26 6:10am 61 6 G 8 82° 23% - - 41° 84.3° 72.5° - - -
6/26 6:00am 64 6 G 7 82° 23% - - 41° 84.3° 72.5° - - -